Airfield :
LOGIN :

Register | Disclaimer

   EN    FR    IT 

 










Legend :    VFR   Marginal VFR   IFR   Intensive IFR   Very Intensive IFR
Visi :
Ceiling :
>= 8 km
>= 3000ft
5 to 8 km
1000 to 3000 ft
1500m to 5 km
500 to 1000 ft
800 to 1500m
200 to 500 ft
< 800m
< 200 ft
Symbols :   Thunderstorms  Fog  Heavy snow  Heavy precipitations  Wind > 20 kt
SIGMETs :     Misc.  Thunderstorms  Icing  Turbulence  Mountain Waves  Volcanic Ashes






- Airport Elevation : 29 ft


LIRM - Grazzanise Caserta

CURRENT METAR :
  • 280255Z 36004KT CAVOK 05/03 Q1019 RMK SKC VIS MIN 9999 WIND THR06 04003KT BLU

EXPIRED METARs :
  • 280155Z 35003KT CAVOK 06/02 Q1020 RMK SKC VIS MIN 9999 WIND THR06 03003KT BLU
  • 272155Z 10005KT CAVOK 08/03 Q1021 RMK SKC VIS MIN 9999 WIND THR06 16004KT BLU
  • 280055Z 02003KT CAVOK 06/03 Q1020 RMK SKC VIS MIN 9999 WIND THR06 03004KT BLU

TAF TAF LIRM
Valid from the 28 at 03:00 until the 28 at 12:00 UTC


280200Z 2803/2812 02008KT CAVOK
TEMPO 2803/2809 9999 SCT040



MET'MAP, your aeronautical weather chart ! - Copyright ORBIFLY December 2007 - Disclaimer

ORBIFLY MET'MAP TEAM :

Programming & Development : Alexandra Zaïnal
Original concept : Baudouin d'Aumeries
Technical & hardware support : Manuel Goepfert
Assistance : Marc-Olivier Méhu




SOURCES & CREDITS :

   NOAA